Latest Coastal Weather Observations for Truscott

IDW60701

Issued at 1:33 am WST Thursday 3 September 2026 (issued every 10 minutes, with the page automatically refreshed every 10 minutes)

About coastal observations | Map of coastal stations | Coastal observations for WA | Marine services | Other Formats
Station Details ID: 001020 Name: TRUSCOTT Lat: -14.09 Lon: 126.39 Height: 51.0 m
Data from the previous 72 hours. | See also: Recent months at Truscott
Date/Time
WST
Wind Sea
Height
m
Swell Vis
km
Cloud Weather Temp
°C
Press
MSL
hPa
Rain since
9am
mm
Dir  Spd
kts
Gust
kts
Height
m
Period
s
Dir
03/01:30am CALM 0 0 - - - - 10 Clear - 21.3 1015.6 0.0
03/01:00am SW 4 6 - - - - 10 - - 23.0 1015.7 0.0
03/12:30am WSW 3 4 - - - - 10 - - 21.5 1015.9 0.0
03/12:00am CALM 0 0 - - - - 10 - - 21.5 1016.1 0.0
 
Date/Time
WST
Wind Sea
Height
m
Swell Vis
km
Cloud Weather Temp
°C
Press
MSL
hPa
Rain since
9am
mm
Dir  Spd
kts
Gust
kts
Height
m
Period
s
Dir
02/11:30pm CALM 0 0 - - - - 10 - - 21.3 1016.2 0.0
02/11:00pm CALM 0 0 - - - - 10 - - 21.6 1016.4 0.0
02/10:30pm CALM 0 0 - - - - 10 - - 21.6 1016.2 0.0
02/10:00pm CALM 0 0 - - - - 10 - - 22.0 1016.2 0.0
02/09:30pm CALM 0 0 - - - - 10 - - 22.1 1016.4 0.0
02/09:00pm CALM 0 0 - - - - 10 - - 22.4 1016.4 0.0
02/08:30pm CALM 0 0 - - - - 10 - - 23.3 1016.4 0.0
02/08:00pm ENE 3 4 - - - - 10 Partly cloudy - 23.8 1016.3 0.0
02/07:30pm NE 3 5 - - - - 10 - - 24.1 1016.2 0.0
02/07:00pm NNE 3 5 - - - - 10 - - 24.8 1015.8 0.0
02/06:30pm NNE 5 8 - - - - 10 - - 25.1 1015.5 0.0
02/06:00pm NNE 5 7 - - - - 10 - - 25.5 1015.1 0.0
02/05:30pm NNE 6 10 - - - - 10 - - 25.9 1014.7 0.0
02/05:00pm N 9 15 - - - - 10 - - 26.6 1014.4 0.0
02/04:30pm NNE 10 15 - - - - 10 - - 27.4 1014.1 0.0
02/04:00pm N 9 16 - - - - 10 - - 28.6 1013.8 0.0
02/03:30pm N 9 15 - - - - 10 Partly cloudy - 29.7 1013.5 0.0
02/03:00pm N 9 14 - - - - 10 Partly cloudy - 30.3 1013.3 0.0
02/02:30pm N 8 13 - - - - 10 Partly cloudy - 30.7 1013.4 0.0
02/02:00pm NNE 9 14 - - - - 10 Partly cloudy - 30.6 1013.6 0.0
02/01:30pm NNE 9 15 - - - - 10 Partly cloudy - 32.2 1013.9 0.0
02/01:00pm NNE 11 25 - - - - 10 Partly cloudy - 31.5 1014.1 0.0
02/12:30pm ENE 6 11 - - - - 10 Partly cloudy - 34.0 1014.5 0.0
02/12:00pm ENE 7 10 - - - - 10 Mostly cloudy - 31.0 1015.1 0.0
02/11:30am ENE 7 11 - - - - 10 Partly cloudy - 32.8 1015.5 0.0
02/11:00am E 9 15 - - - - 10 Partly cloudy - 31.1 1016.3 0.0
02/10:30am E 8 13 - - - - 10 Partly cloudy - 32.3 1016.8 0.0
02/10:00am SE 7 11 - - - - 10 Mostly clear - 32.3 1017.0 0.0
02/09:30am SSE 6 14 - - - - 10 - - 30.9 1017.5 0.0
02/09:00am SSE 5 8 - - - - 10 Mostly clear - 30.4 1017.5 0.0
02/08:30am SSW 6 8 - - - - 10 - - 28.5 1017.6 0.0
02/08:00am S 6 8 - - - - 10 Partly cloudy - 27.6 1017.6 0.0
02/07:30am S 4 7 - - - - 10 Partly cloudy - 26.2 1017.4 0.0
02/07:00am SSW 6 9 - - - - 10 Partly cloudy - 25.2 1017.0 0.0
02/06:30am SSW 8 12 - - - - 10 Partly cloudy - 23.8 1016.7 0.0
02/06:00am SW 7 9 - - - - 10 - - 22.7 1016.5 0.0
02/05:30am SSW 7 9 - - - - 10 - - 22.6 1016.4 0.0
02/05:00am SSW 5 7 - - - - 10 - - 22.3 1016.2 0.0
02/04:30am SSW 4 5 - - - - 10 - - 20.7 1015.9 0.0
02/04:00am SSW 3 5 - - - - 10 - - 20.4 1015.8 0.0
02/03:30am SSW 4 4 - - - - 10 - - 20.5 1015.7 0.0
02/03:00am CALM 0 0 - - - - 10 - - 20.7 1015.6 0.0
02/02:30am SSW 3 4 - - - - 10 - - 20.9 1015.6 0.0
02/02:00am SSE 4 4 - - - - 10 - - 20.8 1015.7 0.0
02/01:30am NE 3 4 - - - - 10 - - 20.6 1015.9 0.0
02/01:00am CALM 0 0 - - - - 10 - - 21.1 1016.1 0.0
02/12:30am CALM 0 0 - - - - 10 - - 21.2 1016.1 0.0
02/12:00am CALM 0 0 - - - - 10 - - 21.5 1016.3 0.0
 
Date/Time
WST
Wind Sea
Height
m
Swell Vis
km
Cloud Weather Temp
°C
Press
MSL
hPa
Rain since
9am
mm
Dir  Spd
kts
Gust
kts
Height
m
Period
s
Dir
01/11:30pm CALM 0 0 - - - - 10 - - 21.7 1016.4 0.0
01/11:00pm CALM 0 0 - - - - 10 - - 21.6 1016.6 0.0
01/10:30pm CALM 0 0 - - - - 10 - - 21.6 1016.7 0.0
01/10:00pm CALM 0 0 - - - - 10 - - 21.9 1016.5 0.0
01/09:30pm CALM 0 0 - - - - 10 - - 21.9 1016.6 0.0
01/09:00pm CALM 0 2 - - - - 10 - - 22.4 1016.5 0.0
01/08:30pm NE 3 4 - - - - 10 - - 22.2 1016.5 0.0
01/08:00pm NE 1 3 - - - - 10 - - 22.3 1016.3 0.0
01/07:30pm CALM 0 0 - - - - 10 - - 23.1 1016.2 0.0
01/07:00pm CALM 0 0 - - - - 10 - - 24.1 1015.9 0.0
01/06:30pm NNE 3 4 - - - - 10 - - 24.7 1015.3 0.0
01/06:00pm N 5 7 - - - - 10 - - 25.5 1015.0 0.0
01/05:30pm N 7 10 - - - - 10 - - 26.0 1014.9 0.0
01/05:00pm N 9 14 - - - - 10 - - 26.8 1014.5 0.0
01/04:30pm NNE 9 16 - - - - 10 - - 27.6 1014.1 0.0
01/04:00pm NNE 10 17 - - - - 10 - - 28.6 1013.8 0.0
01/03:30pm N 10 15 - - - - 10 - - 29.0 1013.5 0.0
01/03:00pm NNE 9 15 - - - - 10 - - 29.7 1013.6 0.0
01/02:30pm NNE 9 16 - - - - 10 - - 30.7 1013.6 0.0
01/02:00pm N 7 13 - - - - 10 - - 31.1 1013.7 0.0
01/01:30pm NNE 8 14 - - - - 10 - - 32.1 1014.2 0.0
01/01:00pm N 9 13 - - - - 10 - - 30.7 1014.7 0.0
01/12:30pm N 8 13 - - - - 10 - - 31.4 1015.3 0.0
01/12:00pm N 9 17 - - - - 10 - - 30.7 1015.8 0.0
01/11:30am NNE 9 16 - - - - 10 - - 29.7 1016.5 0.0
01/11:00am ESE 8 13 - - - - 10 - - 32.0 1016.8 0.0
01/10:30am ESE 8 12 - - - - 10 - - 31.8 1017.3 0.0
01/10:00am ESE 8 13 - - - - 10 - - 31.5 1017.8 0.0
01/09:30am E 5 7 - - - - 10 - - 31.0 1018.0 0.0
01/09:00am WSW 2 4 - - - - 10 - - 29.8 1018.3 0.0
01/08:30am S 3 4 - - - - 10 - - 28.6 1018.5 0.0
01/08:00am SE 3 5 - - - - 10 - - 27.1 1018.4 0.0
01/07:30am SE 3 4 - - - - 10 - - 26.3 1018.3 0.0
01/07:00am SSE 3 4 - - - - 10 - - 24.3 1018.0 0.0
01/06:30am SSE 2 4 - - - - 10 - - 21.9 1017.7 0.0
01/06:00am SSW 1 3 - - - - 10 - - 19.5 1017.5 0.0
01/05:30am CALM 0 0 - - - - 10 - - 19.3 1017.3 0.0
01/05:00am CALM 0 0 - - - - 10 - - 19.1 1016.9 0.0
01/04:30am CALM 0 0 - - - - 10 - - 19.1 1016.4 0.0
01/04:00am SW 2 4 - - - - 10 - - 19.7 1016.2 0.0
01/03:30am N 3 4 - - - - 10 - - 19.7 1016.1 0.0
01/03:00am N 2 4 - - - - 10 - - 19.6 1016.2 0.0
01/02:30am CALM 0 0 - - - - 10 - - 20.1 1016.1 0.0
01/02:00am CALM 0 0 - - - - 10 - - 20.2 1016.1 0.0
01/01:30am N 3 3 - - - - 10 - - 20.6 1016.2 0.0
01/01:00am N 3 4 - - - - 10 - - 20.8 1016.3 0.0
01/12:30am N 2 3 - - - - 10 - - 20.9 1016.7 0.0
01/12:00am CALM 0 0 - - - - 10 - - 21.4 1017.1 0.0
 
Date/Time
WST
Wind Sea
Height
m
Swell Vis
km
Cloud Weather Temp
°C
Press
MSL
hPa
Rain since
9am
mm
Dir  Spd
kts
Gust
kts
Height
m
Period
s
Dir
31/11:30pm CALM 0 0 - - - - 10 - - 21.0 1017.2 0.0
31/11:00pm CALM 0 0 - - - - 10 - - 21.1 1017.3 0.0
31/10:30pm CALM 0 0 - - - - 10 - - 21.1 1017.3 0.0
31/10:00pm CALM 0 0 - - - - 10 - - 21.5 1017.3 0.0
31/09:30pm CALM 0 0 - - - - 10 - - 21.6 1017.2 0.0
31/09:00pm CALM 0 0 - - - - 10 - - 21.9 1017.2 0.0
31/08:30pm CALM 0 0 - - - - 10 - - 22.3 1017.3 0.0
31/08:00pm CALM 0 0 - - - - 10 - - 22.5 1017.2 0.0
31/07:30pm N 1 3 - - - - 10 - - 23.4 1016.8 0.0
31/07:00pm N 3 4 - - - - 10 - - 24.7 1016.2 0.0
31/06:30pm NNW 4 6 - - - - 10 - - 25.4 1015.7 0.0
31/06:00pm NNW 5 7 - - - - 10 - - 25.9 1015.3 0.0
31/05:30pm N 5 8 - - - - 10 - - 26.5 1014.9 0.0
31/05:00pm NNE 7 12 - - - - 10 - - 27.4 1014.6 0.0
31/04:30pm N 7 11 - - - - 10 - - 28.5 1014.5 0.0
31/04:00pm NNE 8 11 - - - - 10 - - 29.4 1014.3 0.0
31/03:30pm N 8 11 - - - - 10 - - 29.8 1014.3 0.0
31/03:00pm N 7 12 - - - - 10 - - 30.9 1014.3 0.0
31/02:30pm NNW 9 14 - - - - 10 - - 30.6 1014.5 0.0
31/02:00pm N 9 15 - - - - 10 - - 30.7 1014.7 0.0
31/01:30pm N 10 16 - - - - 10 - - 30.4 1015.1 0.0
31/01:00pm N 9 15 - - - - 10 - - 31.5 1015.4 0.0
31/12:30pm NNE 8 13 - - - - 10 - - 32.3 1015.6 0.0
31/12:00pm ENE 7 13 - - - - 10 - - 32.6 1016.2 0.0
31/11:30am NE 9 14 - - - - 10 - - 31.6 1016.9 0.0
31/11:00am ENE 8 13 - - - - 10 - - 31.5 1017.5 0.0
31/10:30am E 8 12 - - - - 10 - - 31.3 1017.9 0.0
31/10:00am N 7 11 - - - - 10 - - 30.6 1018.3 0.0
31/09:30am ESE 6 9 - - - - 10 - - 30.8 1018.6 0.0
31/09:00am SSE 5 7 - - - - 10 - - 29.6 1018.7 0.0
31/08:30am ESE 4 6 - - - - 10 - - 29.1 1018.5 0.0
31/08:00am ESE 5 7 - - - - 10 - - 27.3 1018.5 0.0
31/07:30am ESE 5 7 - - - - 10 - - 25.9 1018.5 0.0
31/07:00am SSW 3 4 - - - - 10 - - 24.7 1018.1 0.0
31/06:30am SSW 4 5 - - - - 10 - - 23.6 1017.7 0.0
31/06:00am S 4 6 - - - - 10 - - 22.3 1017.2 0.0
31/05:30am SSW 5 6 - - - - 10 - - 22.7 1016.7 0.0
31/05:00am SSW 6 8 - - - - 10 - - 22.7 1016.3 0.0
31/04:30am SSW 5 6 - - - - 10 - - 22.5 1016.0 0.0
31/04:00am SSW 6 8 - - - - 10 - - 22.6 1015.8 0.0
31/03:30am SSW 6 7 - - - - 10 - - 22.7 1015.6 0.0
31/03:00am SSW 5 8 - - - - 10 - - 22.7 1015.6 0.0
31/02:30am SSW 5 6 - - - - 10 - - 22.5 1015.6 0.0
31/02:00am SSW 4 5 - - - - 10 - - 22.1 1015.8 0.0

Other formats

Comma delimited format used in spreadsheet applications
http://www.bom.gov.au/fwo/IDW60701/IDW60701.95101.axf

JavaScript Object Notation format (JSON) in row-major order
http://www.bom.gov.au/fwo/IDW60701/IDW60701.95101.json

Data quality

Most of these data are generated automatically and are frequently updated. Quality checks on data are not normally performed. It is possible for incorrect values to appear. Refer to information at About Latest Weather Observations and please check the disclaimer before using these data.